createdAt,value
2019-04-07T00:00:07.462Z,531.5900
2019-04-07T00:00:18.292Z,532.0640
2019-04-07T00:00:29.296Z,532.8790
2019-04-07T00:00:37.396Z,533.0420
2019-04-07T00:00:52.991Z,531.4420
2019-04-07T00:01:02.395Z,529.9110
2019-04-07T00:01:10.396Z,530.6730
2019-04-07T00:01:18.520Z,531.3590
2019-04-07T00:01:26.408Z,531.4100
2019-04-07T00:01:34.451Z,534.2180
2019-04-07T00:01:42.394Z,536.4070
2019-04-07T00:01:50.452Z,540.6340
2019-04-07T00:01:58.424Z,541.6270
2019-04-07T00:02:14.235Z,546.7540
2019-04-07T00:02:22.456Z,552.5020
2019-04-07T00:02:30.459Z,553.4030
2019-04-07T00:02:38.536Z,554.5330
2019-04-07T00:02:46.453Z,555.5550
2019-04-07T00:02:54.588Z,558.2480
2019-04-07T00:03:01.401Z,560.2840
2019-04-07T00:03:09.426Z,560.2610
2019-04-07T00:03:17.446Z,558.9030
2019-04-07T00:03:24.418Z,556.8380
2019-04-07T00:03:32.425Z,556.5400
2019-04-07T00:03:40.381Z,552.5400
2019-04-07T00:03:48.400Z,544.1370
2019-04-07T00:03:56.403Z,537.4690
2019-04-07T00:04:04.415Z,531.4320
2019-04-07T00:04:12.406Z,526.1780
2019-04-07T00:04:19.392Z,522.0770
2019-04-07T00:04:27.392Z,522.2150
2019-04-07T00:04:35.406Z,523.3780
2019-04-07T00:04:43.396Z,521.7450
2019-04-07T00:04:51.431Z,519.0800
2019-04-07T00:05:10.201Z,520.5020
2019-04-07T00:05:14.726Z,521.9600
2019-04-07T00:05:23.012Z,525.0410
2019-04-07T00:05:31.380Z,525.6610
2019-04-07T00:05:39.473Z,527.4200
2019-04-07T00:05:47.389Z,530.2930
2019-04-07T00:05:55.409Z,531.0990
2019-04-07T00:06:24.398Z,532.1370
2019-04-07T00:06:32.383Z,537.1770
2019-04-07T00:06:40.392Z,537.1800
2019-04-07T00:06:48.420Z,535.7530
2019-04-07T00:06:56.406Z,535.5530
2019-04-07T00:07:04.419Z,536.4330
2019-04-07T00:07:11.482Z,538.9390
2019-04-07T00:07:20.411Z,538.2450
2019-04-07T00:07:28.501Z,538.6780
2019-04-07T00:07:36.422Z,538.9290
2019-04-07T00:07:44.802Z,539.8180
2019-04-07T00:07:53.029Z,539.1860
2019-04-07T00:08:01.820Z,539.3310
2019-04-07T00:08:10.140Z,537.2880
2019-04-07T00:08:33.303Z,533.7600
2019-04-07T00:08:43.478Z,526.5100
2019-04-07T00:08:52.286Z,523.6900
2019-04-07T00:09:03.887Z,520.5980
2019-04-07T00:09:13.339Z,517.4870
2019-04-07T00:09:22.189Z,515.6570
2019-04-07T00:09:33.154Z,515.5710
2019-04-07T00:09:41.408Z,508.8140
2019-04-07T00:09:50.341Z,505.5710
2019-04-07T00:09:59.253Z,507.3170
2019-04-07T00:10:08.350Z,509.4090
2019-04-07T00:10:16.398Z,507.7430
2019-04-07T00:10:24.948Z,510.2580
2019-04-07T00:10:32.403Z,514.4590
2019-04-07T00:10:41.366Z,517.2840
2019-04-07T00:10:50.584Z,521.5900
2019-04-07T00:10:59.253Z,524.1250
2019-04-07T00:11:07.413Z,527.6380
2019-04-07T00:11:15.403Z,530.7900
2019-04-07T00:11:23.419Z,531.2160
2019-04-07T00:11:31.405Z,532.0590
2019-04-07T00:11:39.678Z,533.2790
2019-04-07T00:11:46.385Z,532.1840
2019-04-07T00:11:57.007Z,529.8870
2019-04-07T00:12:12.577Z,530.7930
2019-04-07T00:12:20.456Z,533.0060
2019-04-07T00:12:29.249Z,533.9680
2019-04-07T00:12:45.732Z,535.5290
2019-04-07T00:12:54.009Z,536.5670
2019-04-07T00:13:02.876Z,538.4440
2019-04-07T00:13:10.700Z,539.8460
2019-04-07T00:13:18.446Z,539.2340
2019-04-07T00:13:27.122Z,537.9040
2019-04-07T00:13:35.420Z,536.5840
2019-04-07T00:13:43.410Z,537.5440
2019-04-07T00:13:51.792Z,537.9320
2019-04-07T00:14:02.412Z,537.1400
2019-04-07T00:14:13.862Z,536.2490
2019-04-07T00:14:21.464Z,535.9740
2019-04-07T00:14:30.291Z,535.2070
2019-04-07T00:14:39.983Z,534.8700
2019-04-07T00:14:51.428Z,533.9860
2019-04-07T00:15:00.294Z,535.1070
2019-04-07T00:15:08.806Z,535.1450
2019-04-07T00:15:16.841Z,534.0600
2019-04-07T00:15:24.420Z,534.5980
2019-04-07T00:15:32.395Z,536.4210
2019-04-07T00:15:40.407Z,537.6680
2019-04-07T00:15:48.841Z,537.7450
2019-04-07T00:15:56.422Z,538.9200
2019-04-07T00:16:04.600Z,538.6470
2019-04-07T00:16:12.399Z,538.2030
2019-04-07T00:16:20.431Z,538.3720
2019-04-07T00:16:28.424Z,537.6520
2019-04-07T00:16:37.345Z,538.0640
2019-04-07T00:16:45.550Z,539.3530
2019-04-07T00:16:53.757Z,541.3130
2019-04-07T00:17:01.790Z,541.7980
2019-04-07T00:17:10.530Z,540.4600
2019-04-07T00:17:18.433Z,540.0120
2019-04-07T00:17:29.797Z,538.5980
2019-04-07T00:17:37.540Z,535.6290
2019-04-07T00:17:45.578Z,535.2590
2019-04-07T00:17:52.407Z,536.1040
2019-04-07T00:18:00.550Z,536.0730
2019-04-07T00:18:08.413Z,536.2060
2019-04-07T00:18:16.866Z,534.5560
2019-04-07T00:18:24.429Z,534.2450
2019-04-07T00:18:32.523Z,534.3330
2019-04-07T00:18:40.975Z,534.7300
2019-04-07T00:18:49.556Z,536.5320
2019-04-07T00:18:57.831Z,537.7800
2019-04-07T00:19:06.639Z,538.5010
2019-04-07T00:19:15.556Z,537.4180
2019-04-07T00:19:23.401Z,537.6130
2019-04-07T00:19:31.609Z,538.7430
2019-04-07T00:19:40.427Z,538.7970
2019-04-07T00:19:48.789Z,539.1180
2019-04-07T00:20:11.290Z,538.9960
2019-04-07T00:20:19.871Z,535.5570
2019-04-07T00:20:29.632Z,533.9270
2019-04-07T00:20:38.684Z,534.0380
2019-04-07T00:20:46.409Z,534.6540
2019-04-07T00:20:54.396Z,533.8570
2019-04-07T00:21:03.920Z,534.1540
2019-04-07T00:21:11.391Z,534.5420
2019-04-07T00:21:20.013Z,536.0200
2019-04-07T00:21:29.464Z,536.2420
2019-04-07T00:21:37.398Z,537.6840
2019-04-07T00:21:45.661Z,538.6440
2019-04-07T00:21:53.930Z,537.1670
2019-04-07T00:22:02.420Z,537.6870
2019-04-07T00:22:10.410Z,538.4500
2019-04-07T00:22:19.882Z,539.8990
2019-04-07T00:22:26.395Z,539.6630
2019-04-07T00:22:35.347Z,539.3230
2019-04-07T00:22:43.401Z,539.5020
2019-04-07T00:22:51.403Z,540.0650
2019-04-07T00:22:59.413Z,540.4260
2019-04-07T00:23:07.405Z,538.9840
2019-04-07T00:23:15.431Z,538.8670
2019-04-07T00:23:23.421Z,538.5030
2019-04-07T00:23:31.979Z,538.3350
2019-04-07T00:23:40.421Z,538.9580
2019-04-07T00:23:56.159Z,539.1880
2019-04-07T00:24:05.689Z,539.9860
2019-04-07T00:24:13.634Z,538.1030
2019-04-07T00:24:21.892Z,539.5160
2019-04-07T00:24:29.611Z,541.2000
2019-04-07T00:24:37.388Z,540.7790
2019-04-07T00:24:45.413Z,540.9490
2019-04-07T00:24:53.398Z,540.6460
2019-04-07T00:25:02.483Z,541.3780
2019-04-07T00:25:10.585Z,541.2720
2019-04-07T00:25:18.395Z,540.0720
2019-04-07T00:25:26.450Z,539.7510
2019-04-07T00:25:34.384Z,540.0640
2019-04-07T00:25:42.976Z,541.9490
2019-04-07T00:25:51.395Z,543.3720
2019-04-07T00:26:00.154Z,542.8030
2019-04-07T00:26:08.434Z,540.5630
2019-04-07T00:26:16.758Z,539.9290
2019-04-07T00:26:24.910Z,540.0010
2019-04-07T00:26:32.393Z,539.9330
2019-04-07T00:26:39.450Z,540.6270
2019-04-07T00:26:47.503Z,539.5870
2019-04-07T00:26:55.392Z,538.2800
2019-04-07T00:27:03.548Z,537.3530
2019-04-07T00:27:12.400Z,538.6290
2019-04-07T00:27:21.356Z,539.1420
2019-04-07T00:27:32.412Z,540.0850
2019-04-07T00:27:40.497Z,541.1660
2019-04-07T00:28:10.295Z,540.1480
2019-04-07T00:28:19.597Z,542.8670
2019-04-07T00:28:27.540Z,541.3240
2019-04-07T00:28:35.397Z,539.7270
2019-04-07T00:28:43.743Z,538.8130
2019-04-07T00:28:51.949Z,540.2350
2019-04-07T00:29:01.561Z,539.8370
2019-04-07T00:29:10.944Z,539.6210
2019-04-07T00:29:19.940Z,539.3160
2019-04-07T00:29:27.713Z,537.1710
2019-04-07T00:29:37.852Z,539.1290
2019-04-07T00:29:45.416Z,540.4310
2019-04-07T00:29:56.462Z,541.7670
2019-04-07T00:30:19.785Z,542.8990
2019-04-07T00:30:27.403Z,539.1570
2019-04-07T00:30:35.396Z,539.0370
2019-04-07T00:30:43.414Z,540.4670
2019-04-07T00:30:52.292Z,540.1480
2019-04-07T00:31:01.937Z,539.5380
2019-04-07T00:31:17.303Z,540.0570
2019-04-07T00:31:25.402Z,540.1390
2019-04-07T00:31:33.409Z,541.0850
2019-04-07T00:31:41.556Z,541.0080
2019-04-07T00:31:50.009Z,539.8020
2019-04-07T00:31:59.299Z,538.7720
2019-04-07T00:32:07.405Z,537.0500
2019-04-07T00:32:15.464Z,537.0400
2019-04-07T00:32:23.423Z,536.5340
2019-04-07T00:32:31.422Z,538.4510
2019-04-07T00:32:39.403Z,538.6560
2019-04-07T00:32:47.676Z,538.5620
2019-04-07T00:32:56.394Z,538.9460
2019-04-07T00:33:04.384Z,539.9470
2019-04-07T00:33:12.402Z,540.1660
2019-04-07T00:33:21.033Z,542.1290
2019-04-07T00:33:29.404Z,541.8390
2019-04-07T00:33:37.411Z,542.1780
2019-04-07T00:33:46.043Z,540.8040
2019-04-07T00:33:55.432Z,539.2570
2019-04-07T00:34:04.309Z,539.5750
2019-04-07T00:34:12.462Z,540.1570
2019-04-07T00:34:20.560Z,540.5150
2019-04-07T00:34:28.904Z,541.0370
2019-04-07T00:34:36.841Z,540.3310
2019-04-07T00:34:45.008Z,540.6400
2019-04-07T00:34:54.017Z,539.8780
2019-04-07T00:35:03.042Z,538.0560
2019-04-07T00:35:21.938Z,536.2540
2019-04-07T00:35:29.360Z,536.1560
2019-04-07T00:35:37.652Z,536.6140
2019-04-07T00:35:45.924Z,537.1620
2019-04-07T00:35:52.401Z,536.2090
2019-04-07T00:36:00.880Z,535.5890
2019-04-07T00:36:08.437Z,537.2770
2019-04-07T00:36:20.543Z,538.3370
2019-04-07T00:36:28.383Z,538.8800
2019-04-07T00:36:36.410Z,539.7340
2019-04-07T00:36:44.780Z,540.0580
2019-04-07T00:36:52.403Z,540.6410
2019-04-07T00:37:00.414Z,541.2530
2019-04-07T00:37:08.411Z,541.2580
2019-04-07T00:37:17.097Z,541.2100
2019-04-07T00:37:25.454Z,541.6280
2019-04-07T00:37:33.677Z,542.1650
2019-04-07T00:37:41.773Z,542.5610
2019-04-07T00:37:49.383Z,543.4350
2019-04-07T00:37:57.434Z,543.7250
2019-04-07T00:38:05.410Z,543.3840
2019-04-07T00:38:13.899Z,543.6050
2019-04-07T00:38:21.423Z,543.4260
2019-04-07T00:38:28.527Z,544.6380
2019-04-07T00:38:36.385Z,544.7020
2019-04-07T00:38:45.006Z,545.3280
2019-04-07T00:38:53.826Z,545.5700
2019-04-07T00:39:08.295Z,544.9320
2019-04-07T00:39:16.860Z,543.6760
2019-04-07T00:39:24.434Z,542.8820
2019-04-07T00:39:33.558Z,543.1590
2019-04-07T00:39:41.433Z,543.1600
2019-04-07T00:39:49.957Z,542.2600
2019-04-07T00:39:57.770Z,541.6440
2019-04-07T00:40:05.447Z,542.0620
2019-04-07T00:40:13.387Z,539.8000
2019-04-07T00:40:22.327Z,539.6310
2019-04-07T00:40:30.609Z,539.9400
2019-04-07T00:40:38.411Z,541.0290
2019-04-07T00:40:46.533Z,541.0020
2019-04-07T00:40:54.413Z,541.9390
2019-04-07T00:41:02.408Z,542.7690
2019-04-07T00:41:09.510Z,542.5310
2019-04-07T00:41:17.419Z,543.3080
2019-04-07T00:41:25.405Z,542.9920
2019-04-07T00:41:33.403Z,542.7110
2019-04-07T00:41:44.118Z,543.3970
2019-04-07T00:41:51.820Z,543.0980
2019-04-07T00:41:59.404Z,544.0250
2019-04-07T00:42:07.410Z,543.5370
2019-04-07T00:42:15.405Z,542.9800
2019-04-07T00:42:22.615Z,543.9790
2019-04-07T00:42:30.411Z,544.3170
2019-04-07T00:42:39.283Z,543.4450
2019-04-07T00:42:55.510Z,543.3010
2019-04-07T00:43:03.459Z,544.4430
2019-04-07T00:43:32.410Z,545.4210
2019-04-07T00:43:40.609Z,543.2850
2019-04-07T00:43:47.443Z,542.7070
2019-04-07T00:43:56.113Z,543.4220
2019-04-07T00:44:05.024Z,542.5330
2019-04-07T00:44:15.609Z,540.3040
2019-04-07T00:44:23.550Z,539.9490
2019-04-07T00:44:32.801Z,541.3430
2019-04-07T00:44:41.948Z,542.3970
2019-04-07T00:44:49.684Z,543.5590
2019-04-07T00:44:58.695Z,543.1540
2019-04-07T00:45:06.416Z,545.0620
2019-04-07T00:45:14.392Z,545.7140
2019-04-07T00:45:22.410Z,545.1920
2019-04-07T00:45:30.659Z,545.5360
2019-04-07T00:45:38.491Z,546.5810
2019-04-07T00:45:47.287Z,546.1270
2019-04-07T00:45:55.893Z,544.8920
2019-04-07T00:46:03.533Z,544.4060
2019-04-07T00:46:11.522Z,543.4160
2019-04-07T00:46:20.011Z,543.6520
2019-04-07T00:46:29.303Z,543.6310
2019-04-07T00:46:37.406Z,541.8110
2019-04-07T00:46:46.295Z,539.8340
2019-04-07T00:46:55.300Z,540.3300
2019-04-07T00:47:03.421Z,540.9640
2019-04-07T00:47:11.987Z,540.8850
2019-04-07T00:47:21.886Z,540.8660
2019-04-07T00:47:29.490Z,541.0120
2019-04-07T00:47:38.859Z,540.0270
2019-04-07T00:47:46.602Z,540.7430
2019-04-07T00:47:54.390Z,540.3510
2019-04-07T00:48:02.386Z,540.3700
2019-04-07T00:48:10.651Z,539.2910
2019-04-07T00:48:25.324Z,539.0100
2019-04-07T00:48:33.418Z,540.7370
2019-04-07T00:48:42.334Z,540.6950
2019-04-07T00:48:51.293Z,539.7990
2019-04-07T00:49:00.315Z,541.0330
2019-04-07T00:49:13.144Z,540.3440
2019-04-07T00:49:22.071Z,540.4360
2019-04-07T00:49:30.082Z,540.4890
2019-04-07T00:49:38.525Z,539.1040
2019-04-07T00:49:46.591Z,537.7560
2019-04-07T00:49:54.411Z,537.1160
2019-04-07T00:50:02.921Z,538.0930
2019-04-07T00:50:11.946Z,537.2000
2019-04-07T00:50:19.528Z,536.3880
2019-04-07T00:50:27.414Z,537.1880
2019-04-07T00:50:36.295Z,537.9710
2019-04-07T00:50:46.016Z,539.2090
2019-04-07T00:50:55.801Z,541.0850
2019-04-07T00:51:04.492Z,542.3580
2019-04-07T00:51:34.408Z,542.0960
2019-04-07T00:51:43.235Z,540.7230
2019-04-07T00:51:51.410Z,540.3410
2019-04-07T00:51:58.482Z,540.3500
2019-04-07T00:52:06.418Z,540.8770
2019-04-07T00:52:14.511Z,541.7320
2019-04-07T00:52:22.402Z,541.6840
2019-04-07T00:52:30.398Z,540.8120
2019-04-07T00:52:39.072Z,540.9650
2019-04-07T00:52:47.994Z,540.8930
2019-04-07T00:52:56.406Z,541.3060
2019-04-07T00:53:04.501Z,540.4650
2019-04-07T00:53:12.414Z,539.8830
2019-04-07T00:53:23.792Z,539.2580
2019-04-07T00:53:31.576Z,538.2210
2019-04-07T00:53:39.421Z,537.1840
2019-04-07T00:53:46.444Z,536.2340
2019-04-07T00:53:54.569Z,535.5870
2019-04-07T00:54:03.483Z,535.0820
2019-04-07T00:54:12.627Z,535.5320
2019-04-07T00:54:20.541Z,536.0280
2019-04-07T00:54:29.310Z,536.1510
2019-04-07T00:54:38.289Z,535.0790
2019-04-07T00:54:46.973Z,537.5790
2019-04-07T00:54:55.571Z,538.4860
2019-04-07T00:55:04.430Z,538.9760
2019-04-07T00:55:12.923Z,538.7300
2019-04-07T00:55:22.080Z,538.3030
2019-04-07T00:55:31.327Z,537.8410
2019-04-07T00:55:39.691Z,536.1600
2019-04-07T00:55:48.488Z,537.6200
2019-04-07T00:55:56.328Z,539.4160
2019-04-07T00:56:05.051Z,540.4560
2019-04-07T00:56:13.412Z,541.2790
2019-04-07T00:56:22.301Z,540.4160
2019-04-07T00:56:30.407Z,540.6790
2019-04-07T00:56:39.294Z,539.0650
2019-04-07T00:56:47.401Z,538.0300
2019-04-07T00:56:55.660Z,538.1730
2019-04-07T00:57:03.410Z,540.8580
2019-04-07T00:57:11.995Z,542.1870
2019-04-07T00:57:21.896Z,541.7980
2019-04-07T00:57:30.130Z,541.8220
2019-04-07T00:57:38.444Z,541.5650
2019-04-07T00:57:47.287Z,540.4160
2019-04-07T00:57:56.117Z,539.3190
2019-04-07T00:58:04.422Z,538.5810
2019-04-07T00:58:12.579Z,541.3520
2019-04-07T00:58:20.430Z,544.0500
2019-04-07T00:58:29.032Z,545.4300
2019-04-07T00:58:38.236Z,544.2880
2019-04-07T00:58:46.643Z,541.0770
2019-04-07T00:58:55.417Z,538.8540
2019-04-07T00:59:03.168Z,539.5650
2019-04-07T00:59:11.418Z,539.1420
2019-04-07T00:59:19.665Z,537.5550
2019-04-07T00:59:27.406Z,536.2330
2019-04-07T00:59:35.406Z,536.3770
2019-04-07T00:59:44.055Z,534.6590
2019-04-07T00:59:52.407Z,537.1470
2019-04-07T01:00:00.499Z,538.4870
2019-04-07T01:00:08.419Z,537.8490
2019-04-07T01:00:17.439Z,535.9890
2019-04-07T01:00:28.105Z,534.8440
2019-04-07T01:00:37.370Z,537.6680
2019-04-07T01:00:45.409Z,539.2730
2019-04-07T01:00:53.721Z,538.3930
2019-04-07T01:01:01.459Z,539.5440
2019-04-07T01:01:16.431Z,543.2470
2019-04-07T01:01:25.460Z,548.8620
2019-04-07T01:01:34.982Z,550.8110
2019-04-07T01:01:43.424Z,553.4810
2019-04-07T01:01:50.469Z,553.7790
2019-04-07T01:01:59.293Z,552.7990
2019-04-07T01:02:07.844Z,551.2230
2019-04-07T01:02:16.887Z,548.2750
2019-04-07T01:02:24.519Z,548.7710
2019-04-07T01:02:32.453Z,546.2980
2019-04-07T01:02:40.813Z,543.0820
2019-04-07T01:02:49.465Z,541.7670
2019-04-07T01:02:57.432Z,540.0580
2019-04-07T01:03:05.431Z,539.8830
2019-04-07T01:03:13.673Z,540.8570
2019-04-07T01:03:24.912Z,537.0640
2019-04-07T01:03:33.716Z,538.7120
2019-04-07T01:03:40.426Z,540.6970
2019-04-07T01:03:48.398Z,540.0610
2019-04-07T01:03:56.853Z,537.8050
2019-04-07T01:04:12.242Z,535.6970
2019-04-07T01:04:21.539Z,533.6540
2019-04-07T01:04:29.403Z,533.4710
2019-04-07T01:04:41.897Z,534.6340
2019-04-07T01:04:50.646Z,536.9100
2019-04-07T01:04:58.431Z,537.5090
2019-04-07T01:05:06.407Z,537.1140
2019-04-07T01:05:14.779Z,538.1130
2019-04-07T01:05:34.792Z,539.5080
2019-04-07T01:05:40.717Z,541.9930
2019-04-07T01:05:49.552Z,545.4700
2019-04-07T01:05:58.741Z,548.2760
2019-04-07T01:06:13.292Z,547.3440
2019-04-07T01:06:21.908Z,543.8040
2019-04-07T01:06:30.979Z,545.6090
2019-04-07T01:06:38.394Z,549.8320
2019-04-07T01:06:46.426Z,552.0240
2019-04-07T01:06:55.061Z,551.9420
2019-04-07T01:07:03.660Z,551.5330
2019-04-07T01:07:11.446Z,549.7760
2019-04-07T01:07:19.116Z,551.4680
2019-04-07T01:07:27.937Z,548.9350
2019-04-07T01:07:36.421Z,551.1890
2019-04-07T01:07:44.414Z,550.8930
2019-04-07T01:07:52.585Z,547.6160
2019-04-07T01:08:00.584Z,545.0050
2019-04-07T01:08:08.418Z,540.5940
2019-04-07T01:08:17.105Z,541.5070
2019-04-07T01:08:25.961Z,541.3240
2019-04-07T01:08:33.530Z,543.3620
2019-04-07T01:08:41.562Z,543.6680
2019-04-07T01:08:49.442Z,543.0410
2019-04-07T01:08:58.312Z,541.8600
2019-04-07T01:09:07.000Z,540.3030
2019-04-07T01:09:16.549Z,539.5040
2019-04-07T01:09:25.411Z,541.3810
2019-04-07T01:09:33.413Z,541.9280
2019-04-07T01:09:43.158Z,543.8570
2019-04-07T01:09:51.410Z,544.7730
2019-04-07T01:09:59.593Z,545.5890
2019-04-07T01:10:14.308Z,545.1400
2019-04-07T01:10:24.156Z,548.6390
2019-04-07T01:10:32.736Z,550.8080
2019-04-07T01:10:40.530Z,551.6100
2019-04-07T01:10:48.044Z,550.8950
2019-04-07T01:10:56.983Z,550.2370
2019-04-07T01:11:05.656Z,543.7950
2019-04-07T01:11:14.418Z,540.6190
2019-04-07T01:11:23.068Z,540.7240
2019-04-07T01:11:32.311Z,537.5420
2019-04-07T01:11:40.453Z,538.4450
2019-04-07T01:11:48.584Z,542.0960
2019-04-07T01:11:56.287Z,542.3880
2019-04-07T01:12:04.949Z,545.3090
2019-04-07T01:12:13.941Z,548.4030
2019-04-07T01:12:21.431Z,548.2490
2019-04-07T01:12:29.434Z,547.4080
2019-04-07T01:12:38.400Z,546.1760
2019-04-07T01:12:46.459Z,545.0410
2019-04-07T01:12:54.445Z,544.0020
2019-04-07T01:13:02.413Z,542.5450
2019-04-07T01:13:10.742Z,541.6760
2019-04-07T01:13:19.851Z,541.6540
2019-04-07T01:13:27.426Z,543.8150
2019-04-07T01:13:35.426Z,544.1100
2019-04-07T01:13:43.421Z,547.3590
2019-04-07T01:13:51.681Z,548.0610
2019-04-07T01:13:59.434Z,546.1670
2019-04-07T01:14:08.320Z,546.2050
2019-04-07T01:14:16.978Z,545.0230
2019-04-07T01:14:25.611Z,543.2450
2019-04-07T01:14:34.408Z,542.4630
2019-04-07T01:14:42.399Z,542.7140
2019-04-07T01:14:55.413Z,541.9180
2019-04-07T01:15:04.338Z,542.7420
2019-04-07T01:15:12.522Z,543.8970
2019-04-07T01:15:20.408Z,542.5640
2019-04-07T01:15:28.431Z,542.4580
2019-04-07T01:15:37.316Z,546.7470
2019-04-07T01:15:45.986Z,545.2990
2019-04-07T01:15:54.890Z,545.4590
2019-04-07T01:16:02.410Z,545.8930
2019-04-07T01:16:10.821Z,545.5720
2019-04-07T01:16:34.272Z,544.4810
2019-04-07T01:16:41.802Z,545.2180
2019-04-07T01:16:49.401Z,543.3730
2019-04-07T01:16:57.420Z,545.2270
2019-04-07T01:17:06.122Z,546.4440
2019-04-07T01:17:14.932Z,547.7500
2019-04-07T01:17:24.736Z,546.7990
2019-04-07T01:17:32.433Z,548.0430
2019-04-07T01:17:40.392Z,551.0850
2019-04-07T01:17:49.868Z,550.9910
2019-04-07T01:17:57.775Z,551.4870
2019-04-07T01:18:05.452Z,551.8820
2019-04-07T01:18:16.525Z,551.9520
2019-04-07T01:18:26.183Z,547.5790
2019-04-07T01:18:35.597Z,549.1770
2019-04-07T01:18:43.768Z,549.4450
2019-04-07T01:18:52.050Z,547.3150
2019-04-07T01:19:01.422Z,546.3070
2019-04-07T01:19:09.972Z,547.4970
2019-04-07T01:19:19.045Z,546.7990
2019-04-07T01:19:27.822Z,546.1840
2019-04-07T01:19:35.420Z,544.9540
2019-04-07T01:19:43.398Z,544.6580
2019-04-07T01:19:51.948Z,544.1790
2019-04-07T01:19:59.759Z,543.5220
2019-04-07T01:20:10.607Z,543.2910
2019-04-07T01:20:18.430Z,541.3080
2019-04-07T01:20:26.880Z,543.7350
2019-04-07T01:20:35.321Z,544.8270
2019-04-07T01:20:43.962Z,548.1860
2019-04-07T01:20:53.018Z,548.8900
2019-04-07T01:21:04.823Z,545.7220
2019-04-07T01:21:12.828Z,543.0230
2019-04-07T01:21:20.443Z,542.5510
2019-04-07T01:21:28.410Z,542.9240
2019-04-07T01:21:36.429Z,543.5430
2019-04-07T01:21:44.574Z,542.6890
2019-04-07T01:21:53.581Z,541.2690
2019-04-07T01:22:02.413Z,541.9080
2019-04-07T01:22:10.390Z,541.0260
2019-04-07T01:22:18.590Z,540.7560
2019-04-07T01:22:27.431Z,543.9370
2019-04-07T01:22:35.655Z,543.2650
2019-04-07T01:22:44.417Z,546.2760
2019-04-07T01:22:52.769Z,546.7760
2019-04-07T01:23:00.642Z,546.5620
2019-04-07T01:23:08.424Z,544.1070
2019-04-07T01:23:16.988Z,543.6510
2019-04-07T01:23:26.288Z,544.4130
2019-04-07T01:23:35.641Z,547.9140
2019-04-07T01:23:47.881Z,544.6740
2019-04-07T01:23:55.403Z,542.8420
2019-04-07T01:24:03.421Z,541.2540
2019-04-07T01:24:11.404Z,543.5830
2019-04-07T01:24:19.892Z,542.0500
2019-04-07T01:24:31.467Z,542.7410
2019-04-07T01:24:40.644Z,544.2130
2019-04-07T01:24:48.478Z,545.1960
2019-04-07T01:24:55.986Z,542.5860
2019-04-07T01:25:04.978Z,541.5790
2019-04-07T01:25:13.822Z,539.6810
2019-04-07T01:25:21.491Z,539.9330
2019-04-07T01:25:29.432Z,541.7100
2019-04-07T01:25:37.897Z,541.8680
2019-04-07T01:25:45.705Z,541.2400
2019-04-07T01:25:55.203Z,540.6460
2019-04-07T01:26:03.406Z,540.3070
2019-04-07T01:26:11.412Z,538.6130
2019-04-07T01:26:19.423Z,539.4440
2019-04-07T01:26:27.386Z,542.2390
2019-04-07T01:26:35.539Z,544.7060
2019-04-07T01:26:43.571Z,545.5600
2019-04-07T01:26:51.541Z,548.6140
2019-04-07T01:27:00.297Z,548.0590
2019-04-07T01:27:07.421Z,548.4340
2019-04-07T01:27:15.749Z,549.7990
2019-04-07T01:27:23.567Z,546.7700
2019-04-07T01:27:32.289Z,544.0420
2019-04-07T01:27:40.401Z,542.3310
2019-04-07T01:27:49.296Z,541.9890
2019-04-07T01:27:57.804Z,540.7680
2019-04-07T01:28:05.506Z,539.2690
2019-04-07T01:28:13.429Z,536.7570
2019-04-07T01:28:36.353Z,537.3730
2019-04-07T01:28:45.633Z,539.9510
2019-04-07T01:28:54.523Z,540.3140
2019-04-07T01:29:03.417Z,541.7460
2019-04-07T01:29:12.288Z,541.9060
2019-04-07T01:29:21.518Z,541.4250
2019-04-07T01:29:29.865Z,540.7400
2019-04-07T01:29:37.389Z,539.4710
2019-04-07T01:29:47.534Z,540.3220
2019-04-07T01:29:55.395Z,540.7600
2019-04-07T01:30:04.022Z,540.5050
2019-04-07T01:30:12.418Z,540.4320
2019-04-07T01:30:21.441Z,540.1790
2019-04-07T01:30:29.406Z,537.6530
2019-04-07T01:30:37.847Z,536.7370
2019-04-07T01:30:45.844Z,536.9220
2019-04-07T01:30:54.277Z,537.8700
2019-04-07T01:31:02.422Z,540.2220
2019-04-07T01:31:10.422Z,542.0120
2019-04-07T01:31:18.772Z,544.1580
2019-04-07T01:31:26.416Z,546.5050
2019-04-07T01:31:34.412Z,545.6060
2019-04-07T01:31:43.028Z,544.5870
2019-04-07T01:31:51.758Z,544.6470
2019-04-07T01:31:59.476Z,549.1130
2019-04-07T01:32:07.402Z,553.8130
2019-04-07T01:32:15.962Z,556.2350
2019-04-07T01:32:24.013Z,553.5850
2019-04-07T01:32:32.400Z,546.4180
2019-04-07T01:32:40.948Z,542.6880
2019-04-07T01:32:48.410Z,543.8770
2019-04-07T01:32:57.525Z,541.2740
2019-04-07T01:33:05.450Z,539.8840
2019-04-07T01:33:14.427Z,540.4920
2019-04-07T01:33:22.395Z,540.7370
2019-04-07T01:33:30.394Z,539.9460
2019-04-07T01:33:38.907Z,542.3520
2019-04-07T01:33:46.862Z,545.0380
2019-04-07T01:33:54.393Z,544.7240
2019-04-07T01:34:02.440Z,544.7160
2019-04-07T01:34:10.608Z,543.5590
2019-04-07T01:34:18.513Z,544.7140
2019-04-07T01:34:26.468Z,543.2060
2019-04-07T01:34:35.294Z,541.9890
2019-04-07T01:34:43.582Z,542.2850
2019-04-07T01:34:52.392Z,543.2370
2019-04-07T01:35:00.412Z,544.0580
2019-04-07T01:35:08.542Z,545.2160
2019-04-07T01:35:16.814Z,544.1100
2019-04-07T01:35:24.422Z,544.8720
2019-04-07T01:35:33.054Z,546.0380
2019-04-07T01:35:50.360Z,548.8210
2019-04-07T01:35:58.425Z,548.0940
2019-04-07T01:36:06.417Z,549.5260
2019-04-07T01:36:14.483Z,550.5250
2019-04-07T01:36:22.644Z,550.8360
2019-04-07T01:36:31.668Z,553.4770
2019-04-07T01:36:39.407Z,549.9630
2019-04-07T01:36:48.012Z,547.1840
2019-04-07T01:36:56.776Z,548.2640
2019-04-07T01:37:04.486Z,548.3990
2019-04-07T01:37:12.409Z,546.8500
2019-04-07T01:37:22.324Z,547.6170
2019-04-07T01:37:30.695Z,548.8820
2019-04-07T01:37:39.589Z,549.5920
2019-04-07T01:37:51.833Z,549.1750
2019-04-07T01:37:59.921Z,546.5140
2019-04-07T01:38:08.317Z,545.7590
2019-04-07T01:38:16.747Z,545.3030
2019-04-07T01:38:24.422Z,544.4430
2019-04-07T01:38:32.411Z,544.0890
2019-04-07T01:38:43.353Z,544.6640
2019-04-07T01:38:51.398Z,545.0060
2019-04-07T01:38:59.968Z,543.9430
2019-04-07T01:39:11.901Z,547.4400
2019-04-07T01:39:19.496Z,549.4000
2019-04-07T01:39:27.421Z,551.7410
2019-04-07T01:39:35.419Z,547.7430
2019-04-07T01:39:43.870Z,545.7590
2019-04-07T01:39:51.402Z,543.5370
2019-04-07T01:39:59.448Z,539.5400
2019-04-07T01:40:08.079Z,537.7310
2019-04-07T01:40:16.838Z,536.6650
2019-04-07T01:40:27.289Z,537.1350
2019-04-07T01:40:35.442Z,536.7270
2019-04-07T01:40:43.445Z,538.2550
2019-04-07T01:40:51.931Z,539.0750
2019-04-07T01:40:59.863Z,539.1380
2019-04-07T01:41:15.268Z,537.1740
2019-04-07T01:41:23.687Z,535.0010
2019-04-07T01:41:31.761Z,534.2610
2019-04-07T01:41:39.389Z,536.5300
2019-04-07T01:41:47.407Z,536.9070
2019-04-07T01:41:55.381Z,536.4360
2019-04-07T01:42:02.630Z,537.5050
2019-04-07T01:42:10.411Z,538.1730
2019-04-07T01:42:18.971Z,539.4270
2019-04-07T01:42:28.051Z,536.9050
2019-04-07T01:42:36.732Z,536.5280
2019-04-07T01:42:44.419Z,537.2680
2019-04-07T01:42:52.399Z,537.5800
2019-04-07T01:43:01.034Z,537.6990
2019-04-07T01:43:09.406Z,539.2100
2019-04-07T01:43:17.539Z,540.0430
2019-04-07T01:43:25.915Z,541.7580
2019-04-07T01:43:34.398Z,542.3140
2019-04-07T01:43:42.425Z,542.3820
2019-04-07T01:43:50.423Z,542.5860